Time;durP1;ratioP1;P1;durP2;ratioP2;P2;SDS_P1;SDS_P2;PMS_P1;PMS_P2;Temp;Humidity;BMP_temperature;BMP_pressure;BME280_temperature;BME280_humidity;BME280_pressure;Samples;Min_cycle;Max_cycle;Signal;HPM_P1;HPM_P2
2022/11/22 00:00:07;;;;;;;337.03;131.83;;;;;;;9.39;74.50;98967.38;291492;33;8687;-76
2022/11/22 00:00:18;;;;;;;338.60;131.82;;;;;;;9.40;74.11;98961.22;294849;33;1198;-76
2022/11/22 00:00:29;;;;;;;340.70;133.25;;;;;;;9.40;74.24;98964.69;289261;33;7077;-76
2022/11/22 00:00:40;;;;;;;337.90;131.85;;;;;;;9.40;73.91;98963.84;290839;33;7834;-75
2022/11/22 00:00:50;;;;;;;338.30;133.97;;;;;;;9.38;74.18;98966.50;291770;33;6191;-75
2022/11/22 00:01:01;;;;;;;339.02;137.45;;;;;;;9.39;74.39;98968.22;290368;34;847;-75
2022/11/22 00:03:11;;;;;;;322.96;121.70;;;;;;;9.34;73.98;98964.97;2495853;27;20463;-75
2022/11/22 00:03:21;;;;;;;331.53;128.30;;;;;;;9.31;74.22;98962.50;353125;28;921;-76
2022/11/22 00:03:32;;;;;;;330.70;126.28;;;;;;;9.29;74.08;98965.16;351834;28;1385;-76
2022/11/22 00:03:42;;;;;;;331.83;128.47;;;;;;;9.27;74.02;98964.41;350514;28;951;-76
2022/11/22 00:03:53;;;;;;;332.15;129.27;;;;;;;9.27;73.85;98958.31;350103;28;994;-76
2022/11/22 00:04:03;;;;;;;333.90;132.30;;;;;;;9.28;74.13;98957.41;349100;28;1035;-76
2022/11/22 00:04:13;;;;;;;334.08;131.70;;;;;;;9.28;73.67;98966.09;349084;28;1192;-76
2022/11/22 00:04:24;;;;;;;335.17;132.37;;;;;;;9.29;73.85;98961.72;347699;28;1277;-76
2022/11/22 00:04:34;;;;;;;334.63;131.07;;;;;;;9.30;74.01;98963.41;350272;28;1434;-76
2022/11/22 00:04:45;;;;;;;334.67;130.53;;;;;;;9.26;74.13;98959.25;349040;28;1199;-76
2022/11/22 00:04:55;;;;;;;335.20;131.17;;;;;;;9.27;74.07;98959.16;350481;28;1372;-76
2022/11/22 00:05:06;;;;;;;334.98;131.48;;;;;;;9.25;74.12;98962.78;351375;28;881;-76
2022/11/22 00:05:16;;;;;;;336.05;135.77;;;;;;;9.25;74.06;98962.78;351758;28;978;-76
2022/11/22 00:05:27;;;;;;;336.50;136.70;;;;;;;9.25;74.01;98954.94;349348;28;1487;-76
2022/11/22 00:05:37;;;;;;;337.08;137.93;;;;;;;9.25;74.18;98965.38;351166;28;1385;-76
2022/11/22 00:05:47;;;;;;;338.50;139.07;;;;;;;9.22;74.32;98965.53;349191;28;994;-76
2022/11/22 00:05:58;;;;;;;336.27;133.67;;;;;;;9.21;74.06;98959.44;349068;28;958;-76
2022/11/22 00:06:08;;;;;;;336.77;132.67;;;;;;;9.22;74.39;98955.06;350494;28;1493;-76
2022/11/22 00:06:19;;;;;;;336.10;129.97;;;;;;;9.22;74.34;98960.28;348979;28;1391;-76
2022/11/22 00:06:29;;;;;;;337.23;132.40;;;;;;;9.22;73.97;98961.16;349160;28;868;-76
2022/11/22 00:06:40;;;;;;;336.25;132.35;;;;;;;9.21;74.27;98953.38;347715;28;829;-76
2022/11/22 00:06:50;;;;;;;338.10;135.50;;;;;;;9.20;74.46;98957.75;348867;28;1406;-75
2022/11/22 00:07:01;;;;;;;337.67;136.63;;;;;;;9.20;74.11;98957.75;345561;28;2029;-76
2022/11/22 00:07:11;;;;;;;338.90;136.03;;;;;;;9.22;74.39;98960.28;350357;28;1329;-75
2022/11/22 00:07:21;;;;;;;337.95;134.77;;;;;;;9.20;74.38;98955.16;350288;28;1215;-75
2022/11/22 00:07:32;;;;;;;338.77;135.00;;;;;;;9.20;74.30;98954.31;348895;28;1412;-76
2022/11/22 00:07:42;;;;;;;338.83;135.90;;;;;;;9.23;74.62;98962.00;346225;28;1196;-76
2022/11/22 00:07:52;;;;;;;338.52;136.38;;;;;;;9.21;74.12;98958.59;346321;28;958;-76
2022/11/22 00:08:03;;;;;;;339.80;138.23;;;;;;;9.23;74.37;98962.84;344578;28;3383;-75
2022/11/22 00:08:13;;;;;;;339.70;136.30;;;;;;;9.24;74.33;98958.47;344700;28;3489;-75
2022/11/22 00:08:24;;;;;;;342.90;138.50;;;;;;;9.24;74.43;98955.84;344978;28;1183;-75
2022/11/22 00:08:34;;;;;;;342.80;138.60;;;;;;;9.19;74.35;98947.38;344012;28;2971;-75
2022/11/22 00:08:45;;;;;;;342.13;139.80;;;;;;;9.20;74.05;98957.75;347634;28;823;-76
2022/11/22 00:08:55;;;;;;;338.25;136.85;;;;;;;9.18;73.95;98956.13;343532;28;1215;-76
2022/11/22 00:09:05;;;;;;;338.73;136.83;;;;;;;9.18;73.93;98963.97;348423;28;1275;-76
2022/11/22 00:09:16;;;;;;;337.73;136.53;;;;;;;9.18;74.12;98959.59;348898;28;1213;-76
2022/11/22 00:09:26;;;;;;;337.50;136.20;;;;;;;9.18;74.30;98967.41;348130;28;1688;-76
2022/11/22 00:09:36;;;;;;;338.40;138.33;;;;;;;9.19;74.14;98965.66;345348;28;1352;-76
2022/11/22 00:09:47;;;;;;;337.40;135.90;;;;;;;9.19;74.36;98958.66;344823;28;1117;-76
2022/11/22 00:09:57;;;;;;;335.67;132.27;;;;;;;9.18;74.64;98961.34;344956;28;849;-75
2022/11/22 00:10:09;;;;;;;333.75;129.27;;;;;;;9.19;74.09;98961.28;344814;28;1213;-75
2022/11/22 00:10:19;;;;;;;336.25;133.80;;;;;;;9.20;73.92;98962.13;344932;28;908;-75
2022/11/22 00:10:30;;;;;;;336.88;135.32;;;;;;;9.18;74.43;98958.75;342263;28;1434;-75
2022/11/22 00:10:40;;;;;;;338.73;137.03;;;;;;;9.21;74.37;98962.06;341169;29;1285;-75
2022/11/22 00:10:50;;;;;;;338.50;136.60;;;;;;;9.21;74.35;98962.06;343454;28;1299;-75
2022/11/22 00:11:01;;;;;;;339.03;136.67;;;;;;;9.22;74.30;98960.28;339211;29;1330;-75
2022/11/22 00:11:11;;;;;;;338.25;135.00;;;;;;;9.19;74.32;98960.44;337131;29;938;-76
2022/11/22 00:11:22;;;;;;;338.30;134.90;;;;;;;9.22;74.18;98965.53;337601;29;1153;-76
2022/11/22 00:11:32;;;;;;;337.87;133.83;;;;;;;9.19;74.03;98957.81;336065;29;1468;-76
2022/11/22 00:11:42;;;;;;;338.40;134.90;;;;;;;9.19;74.48;98960.44;335793;29;1602;-76
2022/11/22 00:11:53;;;;;;;339.07;133.77;;;;;;;9.22;74.33;98962.91;335254;29;1606;-76
2022/11/22 00:12:03;;;;;;;339.00;133.70;;;;;;;9.21;74.10;98958.59;334982;29;2400;-76
2022/11/22 00:12:14;;;;;;;338.77;134.57;;;;;;;9.21;74.11;98958.59;335034;29;852;-76
2022/11/22 00:12:24;;;;;;;336.98;134.23;;;;;;;9.19;74.16;98952.59;336980;29;979;-76
2022/11/22 00:12:35;;;;;;;337.40;134.40;;;;;;;9.21;73.92;98963.81;340835;29;1187;-76
2022/11/22 00:12:45;;;;;;;337.80;133.80;;;;;;;9.17;74.37;98959.66;336830;29;1445;-76
2022/11/22 00:12:56;;;;;;;338.67;134.67;;;;;;;9.16;74.25;98963.19;334386;29;1203;-76
2022/11/22 00:13:06;;;;;;;337.88;133.68;;;;;;;9.18;74.45;98961.34;335305;29;1407;-76
2022/11/22 00:13:17;;;;;;;337.60;134.77;;;;;;;9.16;74.20;98960.56;333119;29;1668;-76
2022/11/22 00:13:27;;;;;;;337.10;136.50;;;;;;;9.13;74.39;98971.16;331277;29;1090;-76
2022/11/22 00:13:38;;;;;;;337.10;137.15;;;;;;;9.12;74.54;98969.47;330783;29;1972;-76
2022/11/22 00:13:48;;;;;;;338.63;138.37;;;;;;;9.12;74.26;98965.09;327628;29;2176;-76
2022/11/22 00:13:58;;;;;;;339.20;136.60;;;;;;;9.11;74.33;98967.75;328281;30;996;-76
2022/11/22 00:14:09;;;;;;;339.48;135.00;;;;;;;9.10;74.53;98960.88;328525;30;2165;-76
2022/11/22 00:14:19;;;;;;;337.60;131.47;;;;;;;9.10;74.41;98953.06;330421;29;1671;-75
2022/11/22 00:14:30;;;;;;;337.85;132.45;;;;;;;9.12;74.47;98964.25;330571;29;1234;-75
2022/11/22 00:14:40;;;;;;;338.07;134.57;;;;;;;9.11;74.58;98967.75;325298;30;1610;-75
2022/11/22 00:14:50;;;;;;;339.65;135.88;;;;;;;9.10;74.73;98966.09;327051;30;982;-75
2022/11/22 00:15:01;;;;;;;339.93;136.70;;;;;;;9.08;74.14;98963.56;327889;29;1694;-75
2022/11/22 00:15:11;;;;;;;341.13;136.75;;;;;;;9.10;74.90;98966.09;326941;30;1251;-75
2022/11/22 00:15:22;;;;;;;341.03;139.67;;;;;;;9.10;74.58;98961.69;330106;29;2119;-75
2022/11/22 00:15:32;;;;;;;338.75;137.70;;;;;;;9.11;74.97;98962.53;329508;29;2427;-75
2022/11/22 00:15:42;;;;;;;337.70;138.90;;;;;;;9.09;74.86;98964.41;327012;30;1053;-75
2022/11/22 00:15:57;;;;;;;338.02;137.70;;;;;;;9.10;74.79;98966.09;329278;29;2410;-75
2022/11/22 00:16:08;;;;;;;337.15;135.45;;;;;;;9.09;74.85;98964.41;328978;29;2694;-76
2022/11/22 00:16:18;;;;;;;336.33;132.80;;;;;;;9.07;74.65;98972.31;326252;30;2770;-75
2022/11/22 00:16:29;;;;;;;336.23;133.27;;;;;;;9.04;74.53;98967.22;324517;30;1282;-75
2022/11/22 00:16:39;;;;;;;337.45;135.77;;;;;;;9.06;74.66;98974.97;324299;30;1820;-75
2022/11/22 00:16:49;;;;;;;337.33;135.57;;;;;;;9.06;74.68;98969.78;321789;30;1328;-75
2022/11/22 00:17:00;;;;;;;337.70;136.63;;;;;;;9.06;74.58;98967.16;326019;30;2015;-75
2022/11/22 00:17:10;;;;;;;336.83;135.60;;;;;;;9.08;74.54;98968.78;320920;30;1194;-75
2022/11/22 00:17:21;;;;;;;339.60;138.95;;;;;;;9.10;74.84;98971.31;318153;30;5271;-75
2022/11/22 00:17:31;;;;;;;340.23;139.80;;;;;;;9.09;74.91;98975.69;318808;30;3593;-75
2022/11/22 00:17:41;;;;;;;344.17;141.27;;;;;;;9.10;74.76;98968.72;319784;30;1315;-75
2022/11/22 00:17:52;;;;;;;344.57;142.63;;;;;;;9.08;74.66;98967.94;318081;30;3194;-77
2022/11/22 00:18:02;;;;;;;344.17;141.32;;;;;;;9.08;74.46;98973.16;317356;30;3243;-76
2022/11/22 00:18:13;;;;;;;341.90;140.87;;;;;;;9.05;74.26;98970.69;318641;31;1455;-75
2022/11/22 00:18:23;;;;;;;339.93;137.83;;;;;;;9.02;74.29;98969.06;319569;30;3418;-75
2022/11/22 00:18:33;;;;;;;339.10;136.33;;;;;;;9.03;74.36;98969.91;319286;30;3347;-76
2022/11/22 00:18:44;;;;;;;339.77;137.10;;;;;;;9.04;74.82;98977.66;317865;31;1274;-75
2022/11/22 00:18:54;;;;;;;339.73;136.50;;;;;;;9.02;74.66;98970.81;318165;31;2496;-75
2022/11/22 00:19:04;;;;;;;340.00;137.43;;;;;;;9.02;74.83;98973.44;315818;31;2142;-75
2022/11/22 00:19:15;;;;;;;338.02;135.40;;;;;;;9.02;74.64;98976.03;313959;31;1449;-75
2022/11/22 00:19:25;;;;;;;337.47;136.27;;;;;;;9.02;75.13;98968.22;310885;31;902;-77
2022/11/22 00:19:38;;;;;;;336.50;134.27;;;;;;;9.03;74.85;98978.59;310975;31;3095;-76
2022/11/22 00:19:48;;;;;;;337.15;134.45;;;;;;;9.04;74.77;98977.66;311549;31;3595;-76
2022/11/22 00:19:59;;;;;;;337.48;135.32;;;;;;;9.05;74.39;98974.13;311941;31;934;-76
2022/11/22 00:20:10;;;;;;;338.33;137.83;;;;;;;9.04;74.81;98976.81;302609;32;4216;-76
2022/11/22 00:20:21;;;;;;;338.17;137.32;;;;;;;9.02;74.90;98978.66;305395;31;4594;-76
2022/11/22 00:20:32;;;;;;;339.63;138.73;;;;;;;9.01;74.76;98983.03;307947;31;4357;-76
2022/11/22 00:20:42;;;;;;;339.02;137.20;;;;;;;8.99;74.55;98977.88;304271;32;1581;-76
2022/11/22 00:20:52;;;;;;;338.80;138.50;;;;;;;8.98;74.87;98973.56;305857;32;4676;-76
2022/11/22 00:21:04;;;;;;;338.03;137.63;;;;;;;9.00;74.73;98970.88;304997;32;3842;-76
2022/11/22 00:21:15;;;;;;;337.17;136.35;;;;;;;9.02;74.55;98979.50;304650;32;1488;-76
2022/11/22 00:21:25;;;;;;;336.23;134.95;;;;;;;9.04;74.83;98974.22;300573;32;1004;-76
2022/11/22 00:21:36;;;;;;;336.47;135.53;;;;;;;9.04;75.02;98972.44;300384;32;3749;-76
2022/11/22 00:21:46;;;;;;;337.80;136.88;;;;;;;9.07;74.49;98979.28;299791;32;4476;-76
2022/11/22 00:21:56;;;;;;;337.83;135.67;;;;;;;9.05;74.87;98975.91;295981;33;1936;-76
2022/11/22 00:22:07;;;;;;;340.10;137.60;;;;;;;9.05;74.77;98978.50;295368;32;5655;-76
2022/11/22 00:22:17;;;;;;;340.90;139.40;;;;;;;9.05;74.44;98975.91;294374;32;5363;-76
2022/11/22 00:22:29;;;;;;;343.80;142.40;;;;;;;9.04;74.73;98980.28;295236;33;950;-76
2022/11/22 00:22:39;;;;;;;342.83;142.30;;;;;;;9.05;74.78;98981.13;289854;33;6044;-76
2022/11/22 00:22:50;;;;;;;340.75;140.75;;;;;;;9.05;74.53;98978.50;289822;33;5917;-76
2022/11/22 00:23:00;;;;;;;339.07;138.77;;;;;;;9.04;74.88;98972.44;291267;33;6342;-76
2022/11/22 00:23:11;;;;;;;341.35;140.30;;;;;;;9.06;74.99;98977.59;288373;34;870;-76
2022/11/22 00:23:21;;;;;;;343.47;141.53;;;;;;;9.07;74.60;98972.31;286938;34;4004;-76
2022/11/22 00:23:32;;;;;;;342.45;139.65;;;;;;;9.09;74.76;98972.25;284614;34;4895;-76
2022/11/22 00:23:42;;;;;;;342.07;138.13;;;;;;;9.06;74.35;98972.38;288447;34;852;-76
2022/11/22 00:23:56;;;;;;;342.08;138.45;;;;;;;9.05;74.92;98978.50;283080;34;7131;-76
2022/11/22 00:24:06;;;;;;;341.10;139.80;;;;;;;9.06;74.62;98974.97;282481;34;6316;-76
2022/11/22 00:24:17;;;;;;;339.90;137.20;;;;;;;9.07;74.76;98976.69;280940;34;7290;-76
2022/11/22 00:24:27;;;;;;;338.38;133.68;;;;;;;9.07;74.88;98974.06;278387;35;1146;-76
2022/11/22 00:26:38;;;;;;;324.25;119.08;;;;;;;9.06;75.23;98980.22;2496372;27;20489;-75
2022/11/22 00:26:48;;;;;;;333.00;123.90;;;;;;;9.07;75.04;98981.91;351549;28;2421;-76
2022/11/22 00:26:59;;;;;;;338.10;129.38;;;;;;;9.06;75.25;98974.97;347173;28;1933;-75
2022/11/22 00:27:09;;;;;;;339.50;130.60;;;;;;;9.06;74.91;98974.97;347241;28;3523;-75
2022/11/22 00:27:20;;;;;;;337.77;129.02;;;;;;;9.03;75.42;98972.50;347568;28;1380;-75
2022/11/22 00:27:30;;;;;;;335.97;124.30;;;;;;;9.05;74.83;98973.28;348283;28;879;-75
2022/11/22 00:27:41;;;;;;;336.15;125.15;;;;;;;9.02;75.00;98979.50;347870;28;5013;-75
2022/11/22 00:27:51;;;;;;;337.63;126.53;;;;;;;9.00;74.81;98976.94;348679;28;3559;-75
2022/11/22 00:28:02;;;;;;;337.50;126.00;;;;;;;8.99;75.16;98975.25;349547;28;1259;-75
2022/11/22 00:28:12;;;;;;;339.30;124.97;;;;;;;8.98;75.15;98976.19;349605;28;1818;-75
2022/11/22 00:28:22;;;;;;;339.00;124.60;;;;;;;8.98;75.27;98972.72;347699;28;1517;-76
2022/11/22 00:28:33;;;;;;;337.37;125.23;;;;;;;8.98;74.87;98972.72;347060;28;885;-76
2022/11/22 00:28:43;;;;;;;335.98;124.85;;;;;;;8.99;75.00;98969.19;347825;28;920;-76
2022/11/22 00:28:54;;;;;;;335.00;124.77;;;;;;;9.00;75.39;98976.09;349083;28;1350;-76
2022/11/22 00:29:04;;;;;;;333.50;124.65;;;;;;;9.00;75.27;98970.88;350841;28;1345;-76
2022/11/22 00:29:15;;;;;;;335.93;127.20;;;;;;;8.98;75.17;98972.72;352369;28;1401;-76
2022/11/22 00:29:25;;;;;;;336.92;129.02;;;;;;;8.99;74.98;98974.41;350647;28;1298;-76
2022/11/22 00:29:35;;;;;;;338.00;129.93;;;;;;;8.99;74.87;98971.81;348940;28;1428;-76
2022/11/22 00:29:46;;;;;;;337.25;130.02;;;;;;;9.00;75.33;98970.88;349159;28;840;-76
2022/11/22 00:29:56;;;;;;;337.53;130.37;;;;;;;9.00;74.91;98974.34;349168;28;1075;-76
2022/11/22 00:30:07;;;;;;;336.80;129.48;;;;;;;8.97;74.88;98979.69;348976;28;860;-76
2022/11/22 00:30:17;;;;;;;336.13;129.20;;;;;;;8.97;74.97;98966.66;350280;28;1263;-75
2022/11/22 00:30:28;;;;;;;337.55;133.15;;;;;;;8.94;74.66;98966.78;350324;28;1139;-75
2022/11/22 00:30:38;;;;;;;339.43;134.37;;;;;;;8.94;74.96;98976.38;346213;28;1232;-75
2022/11/22 00:30:48;;;;;;;340.98;135.07;;;;;;;8.92;74.84;98972.97;344871;28;820;-75
2022/11/22 00:30:59;;;;;;;340.60;132.13;;;;;;;8.92;74.73;98968.63;344974;28;1024;-75
2022/11/22 00:31:09;;;;;;;339.03;131.67;;;;;;;8.91;75.09;98964.31;347118;28;1229;-75
2022/11/22 00:31:19;;;;;;;337.90;130.40;;;;;;;8.93;74.71;98970.31;343797;28;1431;-75
2022/11/22 00:31:30;;;;;;;337.70;130.90;;;;;;;8.93;74.67;98970.31;343673;28;1178;-75
2022/11/22 00:31:40;;;;;;;340.05;134.82;;;;;;;8.94;75.27;98972.00;343661;28;956;-75
2022/11/22 00:31:51;;;;;;;341.93;137.53;;;;;;;8.93;74.79;98966.84;345138;28;1220;-75
2022/11/22 00:32:01;;;;;;;343.02;139.70;;;;;;;8.96;74.74;98969.31;345403;28;2027;-77
2022/11/22 00:32:12;;;;;;;340.43;137.10;;;;;;;8.96;75.04;98975.38;346142;28;1398;-76
2022/11/22 00:32:22;;;;;;;338.73;134.77;;;;;;;8.94;74.95;98971.16;344929;28;877;-75
2022/11/22 00:32:32;;;;;;;339.33;134.20;;;;;;;8.93;74.92;98970.31;343371;28;1225;-75
2022/11/22 00:32:43;;;;;;;339.58;134.20;;;;;;;8.91;74.99;98966.91;342787;28;1673;-75
2022/11/22 00:32:53;;;;;;;341.57;136.27;;;;;;;8.93;74.88;98975.53;343836;28;904;-76
2022/11/22 00:33:04;;;;;;;339.77;134.73;;;;;;;8.93;75.15;98975.53;342077;28;1188;-76
2022/11/22 00:33:14;;;;;;;340.77;135.55;;;;;;;8.94;75.29;98977.22;347507;28;1171;-76
2022/11/22 00:33:24;;;;;;;340.07;135.97;;;;;;;8.90;74.98;98975.66;343491;28;1648;-76
2022/11/22 00:33:35;;;;;;;340.42;136.75;;;;;;;8.91;75.29;98981.72;343671;28;886;-76
2022/11/22 00:33:45;;;;;;;340.63;136.87;;;;;;;8.91;75.36;98977.34;341111;29;1053;-76
2022/11/22 00:33:55;;;;;;;338.55;134.32;;;;;;;8.89;75.14;98973.97;344956;28;888;-76
2022/11/22 00:34:06;;;;;;;341.20;137.00;;;;;;;8.91;75.09;98977.34;340896;28;1303;-76
2022/11/22 00:34:16;;;;;;;342.57;140.03;;;;;;;8.90;75.01;98969.59;338927;29;1347;-76
2022/11/22 00:34:27;;;;;;;343.48;140.77;;;;;;;8.94;75.49;98977.22;334897;29;869;-76
2022/11/22 00:34:37;;;;;;;342.33;139.67;;;;;;;8.92;75.02;98981.66;330822;29;2426;-76
2022/11/22 00:34:47;;;;;;;340.83;138.85;;;;;;;8.92;75.19;98976.44;333195;29;1234;-76
2022/11/22 00:34:58;;;;;;;341.27;140.80;;;;;;;8.94;74.76;98977.22;333038;29;1409;-76
2022/11/22 00:35:09;;;;;;;341.65;142.40;;;;;;;8.94;75.17;98982.44;331864;29;1338;-76
2022/11/22 00:35:19;;;;;;;340.73;139.40;;;;;;;8.96;75.02;98977.16;339779;28;1596;-76
2022/11/22 00:35:29;;;;;;;337.57;133.70;;;;;;;8.94;75.30;98979.84;339142;29;1482;-76
2022/11/22 00:35:40;;;;;;;338.13;132.10;;;;;;;8.95;75.01;98978.91;333175;29;804;-76
2022/11/22 00:35:50;;;;;;;339.40;134.48;;;;;;;8.93;74.85;98979.91;335028;29;3482;-76
2022/11/22 00:36:00;;;;;;;341.27;138.83;;;;;;;8.93;74.86;98979.91;334140;29;3717;-76
2022/11/22 00:36:11;;;;;;;345.10;141.98;;;;;;;8.90;74.86;98980.88;336890;29;1834;-76
2022/11/22 00:36:22;;;;;;;345.30;139.33;;;;;;;8.90;74.98;98975.66;331931;29;2187;-76
2022/11/22 00:36:33;;;;;;;345.67;137.60;;;;;;;8.92;75.30;98978.22;328145;29;6145;-76
2022/11/22 00:36:44;;;;;;;338.92;134.85;;;;;;;8.93;75.11;98980.75;329770;29;1469;-76
2022/11/22 00:36:54;;;;;;;338.73;134.83;;;;;;;8.92;74.83;98980.81;332974;29;1965;-76
2022/11/22 00:37:05;;;;;;;338.80;136.60;;;;;;;8.94;74.80;98977.22;330433;29;2951;-76
2022/11/22 00:37:15;;;;;;;340.30;138.27;;;;;;;8.95;75.22;98976.31;329272;29;2150;-76
2022/11/22 00:37:25;;;;;;;340.20;139.55;;;;;;;8.94;74.80;98979.84;328064;30;1239;-76
2022/11/22 00:37:36;;;;;;;338.63;136.63;;;;;;;8.93;75.10;98985.97;328565;30;2144;-76
2022/11/22 00:37:46;;;;;;;336.85;135.10;;;;;;;8.94;74.91;98981.59;326249;30;1759;-76
2022/11/22 00:37:57;;;;;;;336.73;133.47;;;;;;;8.95;75.05;98978.06;326384;30;1406;-76
2022/11/22 00:38:07;;;;;;;338.23;135.73;;;;;;;8.95;74.63;98976.31;322139;30;1264;-76
2022/11/22 00:38:17;;;;;;;338.20;134.70;;;;;;;8.97;75.05;98981.47;325729;30;1223;-76
2022/11/22 00:38:28;;;;;;;339.00;136.97;;;;;;;8.97;74.95;98982.31;323124;30;1627;-76
2022/11/22 00:38:38;;;;;;;340.67;139.73;;;;;;;8.97;74.98;98982.31;325852;30;840;-76
2022/11/22 00:38:49;;;;;;;342.17;141.17;;;;;;;8.99;74.82;98985.69;323399;30;2361;-76
2022/11/22 00:38:59;;;;;;;343.70;140.93;;;;;;;8.95;75.27;98978.06;323973;30;2137;-76
2022/11/22 00:39:09;;;;;;;343.23;136.67;;;;;;;8.93;74.74;98978.13;323273;30;1189;-76
2022/11/22 00:39:20;;;;;;;343.63;137.13;;;;;;;8.96;75.18;98980.63;322831;30;2359;-76
2022/11/22 00:39:30;;;;;;;344.93;140.33;;;;;;;8.97;75.04;98977.09;320927;30;2476;-76
2022/11/22 00:39:41;;;;;;;344.73;143.03;;;;;;;8.96;74.75;98982.38;320001;30;1872;-76
2022/11/22 00:39:51;;;;;;;344.60;142.15;;;;;;;8.97;75.03;98982.31;317592;30;2755;-76
2022/11/22 00:40:02;;;;;;;341.73;137.77;;;;;;;8.98;74.75;98984.00;316682;31;1245;-76
2022/11/22 00:40:12;;;;;;;342.60;139.20;;;;;;;8.97;74.75;98982.31;318312;31;1229;-76
2022/11/22 00:40:22;;;;;;;343.02;137.60;;;;;;;8.97;75.02;98979.69;312016;31;951;-76
2022/11/22 00:40:33;;;;;;;344.20;138.33;;;;;;;8.95;74.89;98978.91;312247;31;1959;-76
2022/11/22 00:40:43;;;;;;;342.73;135.07;;;;;;;8.96;74.71;98979.75;314215;30;2602;-74
2022/11/22 00:40:54;;;;;;;341.52;137.10;;;;;;;8.96;74.73;98980.63;316851;31;1242;-74
2022/11/22 00:41:04;;;;;;;344.17;138.73;;;;;;;8.95;74.93;98984.13;314891;31;2514;-76
2022/11/22 00:41:14;;;;;;;345.75;140.82;;;;;;;8.97;74.84;98986.69;315757;30;2836;-76
2022/11/22 00:41:25;;;;;;;346.13;140.13;;;;;;;8.95;75.05;98978.91;316447;31;1156;-77
2022/11/22 00:41:35;;;;;;;341.90;137.43;;;;;;;8.92;74.63;98989.50;310722;31;3224;-77
2022/11/22 00:41:45;;;;;;;339.90;134.90;;;;;;;8.91;74.33;98982.56;310378;31;3137;-77
2022/11/22 00:41:56;;;;;;;340.37;135.03;;;;;;;8.93;74.43;98985.13;314964;31;1776;-77
2022/11/22 00:42:06;;;;;;;341.92;136.65;;;;;;;8.93;74.31;98988.56;308261;31;2969;-77
2022/11/22 00:42:17;;;;;;;342.63;137.87;;;;;;;8.91;74.09;98987.78;311357;31;1573;-77
2022/11/22 00:42:27;;;;;;;342.38;138.10;;;;;;;8.88;74.74;98984.47;313900;31;2135;-77
2022/11/22 00:42:37;;;;;;;341.37;137.27;;;;;;;8.86;74.64;98983.69;310829;31;1363;-76
2022/11/22 00:42:48;;;;;;;342.55;139.25;;;;;;;8.89;74.66;98986.16;312245;31;2949;-76
2022/11/22 00:42:58;;;;;;;342.90;137.63;;;;;;;8.89;74.36;98984.41;307231;31;3651;-77
2022/11/22 00:43:09;;;;;;;344.88;137.25;;;;;;;8.89;74.42;98984.41;304214;32;956;-77
2022/11/22 00:43:19;;;;;;;344.67;138.67;;;;;;;8.89;74.68;98986.16;309410;31;3637;-77
2022/11/22 00:43:30;;;;;;;345.73;141.20;;;;;;;8.85;74.32;98988.06;308814;31;4206;-77
2022/11/22 00:43:40;;;;;;;344.48;139.70;;;;;;;8.84;74.65;98981.16;307509;32;1226;-77
2022/11/22 00:43:51;;;;;;;342.73;138.70;;;;;;;8.85;74.81;98982.84;305378;32;4966;-77
2022/11/22 00:44:01;;;;;;;342.60;139.30;;;;;;;8.84;75.01;98994.19;305705;31;4287;-77
2022/11/22 00:44:11;;;;;;;342.80;139.65;;;;;;;8.83;74.97;98987.28;306391;32;1496;-77
2022/11/22 00:44:22;;;;;;;343.97;139.83;;;;;;;8.84;74.92;98985.53;301719;32;4267;-77
2022/11/22 00:44:32;;;;;;;344.05;139.48;;;;;;;8.85;75.00;98987.22;299814;32;2257;-77
2022/11/22 00:44:43;;;;;;;343.13;138.90;;;;;;;8.86;74.69;98988.91;297330;32;3427;-76
2022/11/22 00:44:53;;;;;;;343.73;139.02;;;;;;;8.84;74.65;98983.75;301251;32;1220;-77
2022/11/22 00:45:04;;;;;;;345.83;140.17;;;;;;;8.84;74.51;98988.97;299981;32;4243;-77
2022/11/22 00:45:14;;;;;;;346.13;140.38;;;;;;;8.86;74.76;98987.16;301888;32;5464;-77
2022/11/22 00:45:25;;;;;;;350.17;143.97;;;;;;;8.87;74.71;98993.22;301177;32;1172;-77
2022/11/22 00:45:35;;;;;;;347.42;144.10;;;;;;;8.86;74.34;98988.91;298337;32;5878;-77
2022/11/22 00:45:46;;;;;;;347.57;143.53;;;;;;;8.86;74.54;98978.47;296553;33;6683;-77
2022/11/22 00:45:56;;;;;;;343.95;141.02;;;;;;;8.83;75.12;98987.28;293128;33;1395;-77
2022/11/22 00:46:06;;;;;;;344.77;142.60;;;;;;;8.87;74.71;98991.44;291882;33;7410;-77
2022/11/22 00:46:17;;;;;;;342.83;141.55;;;;;;;8.88;74.25;98993.16;290359;33;5741;-77
2022/11/22 00:46:27;;;;;;;343.93;143.17;;;;;;;8.89;75.08;98989.63;290556;33;6498;-77
2022/11/22 00:46:37;;;;;;;344.10;143.07;;;;;;;8.90;74.60;98996.53;291357;34;874;-77
2022/11/22 00:46:48;;;;;;;345.17;144.27;;;;;;;8.90;74.79;98988.72;289438;33;4029;-75
2022/11/22 00:46:58;;;;;;;344.43;143.03;;;;;;;8.89;74.84;98984.41;287493;34;5597;-76
2022/11/22 00:47:09;;;;;;;344.75;143.05;;;;;;;8.91;74.78;98987.78;284822;34;929;-76
2022/11/22 00:49:03;;;;;;;327.93;127.40;;;;;;;8.88;74.38;98993.16;2497576;27;20964;-76
2022/11/22 00:49:13;;;;;;;337.30;134.80;;;;;;;8.89;74.46;98994.84;351696;28;1201;-76
2022/11/22 00:49:23;;;;;;;337.67;134.90;;;;;;;8.88;74.69;98994.91;349142;28;987;-76
2022/11/22 00:49:34;;;;;;;339.30;138.57;;;;;;;8.89;74.44;98994.00;350522;28;943;-76
2022/11/22 00:49:44;;;;;;;339.33;138.00;;;;;;;8.88;74.98;98992.31;350427;28;1234;-76
2022/11/22 00:49:55;;;;;;;339.77;137.10;;;;;;;8.88;74.77;98992.31;351834;28;1222;-76
2022/11/22 00:50:05;;;;;;;340.90;137.07;;;;;;;8.87;74.81;98991.44;350405;28;1305;-76
2022/11/22 00:50:16;;;;;;;340.03;136.70;;;;;;;8.87;74.52;98991.44;350615;28;1189;-75
2022/11/22 00:50:26;;;;;;;339.75;136.82;;;;;;;8.86;74.61;98989.75;350731;28;1092;-75
2022/11/22 00:50:36;;;;;;;340.67;136.63;;;;;;;8.85;74.70;98998.50;350314;28;900;-75
2022/11/22 00:50:48;;;;;;;342.65;135.13;;;;;;;8.84;74.53;98994.19;351980;28;868;-75
2022/11/22 00:50:59;;;;;;;341.58;133.27;;;;;;;8.86;74.84;98994.97;350315;28;1574;-75
2022/11/22 00:51:09;;;;;;;339.48;132.07;;;;;;;8.85;74.44;98997.66;349013;28;1227;-75
2022/11/22 00:51:19;;;;;;;339.87;136.77;;;;;;;8.86;74.42;98994.97;349178;28;804;-75
2022/11/22 00:51:30;;;;;;;339.75;136.30;;;;;;;8.86;74.30;99000.19;349346;28;1079;-75
2022/11/22 00:51:40;;;;;;;340.97;136.47;;;;;;;8.85;74.29;98998.50;350349;28;1218;-75
2022/11/22 00:51:50;;;;;;;338.33;133.43;;;;;;;8.83;74.41;98992.50;349048;28;1371;-76
2022/11/22 00:52:01;;;;;;;341.63;136.07;;;;;;;8.79;74.43;98990.94;350955;28;1632;-76
2022/11/22 00:52:11;;;;;;;344.30;136.25;;;;;;;8.82;74.62;98989.97;351895;28;1389;-76
2022/11/22 00:52:22;;;;;;;345.87;136.87;;;;;;;8.80;74.45;98994.41;350394;28;1194;-76
2022/11/22 00:52:32;;;;;;;342.20;134.17;;;;;;;8.77;74.33;98990.16;350207;28;1231;-75
2022/11/22 00:52:43;;;;;;;338.20;131.17;;;;;;;8.79;74.77;98995.31;348655;28;1465;-75
2022/11/22 00:52:53;;;;;;;338.67;131.27;;;;;;;8.79;74.71;98987.47;347811;28;1106;-75
2022/11/22 00:53:03;;;;;;;338.92;132.30;;;;;;;8.80;74.69;98995.25;347623;28;868;-75
2022/11/22 00:53:14;;;;;;;339.07;133.27;;;;;;;8.80;74.40;98990.03;350007;28;1808;-75
2022/11/22 00:53:24;;;;;;;338.33;134.80;;;;;;;8.83;74.55;98999.47;349081;28;1244;-75
2022/11/22 00:53:35;;;;;;;339.53;135.70;;;;;;;8.80;74.33;98983.97;347838;28;820;-75
2022/11/22 00:53:45;;;;;;;339.80;137.23;;;;;;;8.80;74.41;98990.03;345201;28;963;-75
2022/11/22 00:53:55;;;;;;;339.30;135.80;;;;;;;8.82;74.88;98998.63;345490;28;1180;-75
2022/11/22 00:54:06;;;;;;;338.08;134.50;;;;;;;8.81;74.67;98996.09;346396;28;1310;-75
2022/11/22 00:54:16;;;;;;;338.70;133.60;;;;;;;8.80;74.23;98990.03;346342;28;5080;-75
2022/11/22 00:54:27;;;;;;;339.17;133.47;;;;;;;8.80;74.52;99000.47;346919;28;1714;-75
2022/11/22 00:54:37;;;;;;;341.37;133.13;;;;;;;8.81;74.67;98996.09;348729;28;1633;-75